sensor_id;sensor_type;location;lat;lon;timestamp;P1;durP1;ratioP1;P2;durP2;ratioP2
24483;SDS011;12643;51.620;7.548;2023-04-30T00:01:56;8.75;;;6.35;;
24483;SDS011;12643;51.620;7.548;2023-04-30T00:04:24;11.35;;;6.20;;
24483;SDS011;12643;51.620;7.548;2023-04-30T00:06:53;9.05;;;6.63;;
24483;SDS011;12643;51.620;7.548;2023-04-30T00:09:21;9.05;;;6.18;;
24483;SDS011;12643;51.620;7.548;2023-04-30T00:11:49;7.53;;;5.65;;
24483;SDS011;12643;51.620;7.548;2023-04-30T00:14:17;8.38;;;5.93;;
24483;SDS011;12643;51.620;7.548;2023-04-30T00:16:45;8.73;;;5.60;;
24483;SDS011;12643;51.620;7.548;2023-04-30T00:19:13;9.48;;;5.60;;
24483;SDS011;12643;51.620;7.548;2023-04-30T00:21:41;11.13;;;6.90;;
24483;SDS011;12643;51.620;7.548;2023-04-30T00:24:10;9.65;;;6.07;;
24483;SDS011;12643;51.620;7.548;2023-04-30T00:26:40;10.55;;;5.97;;
24483;SDS011;12643;51.620;7.548;2023-04-30T00:29:08;8.45;;;6.55;;
24483;SDS011;12643;51.620;7.548;2023-04-30T00:31:37;7.40;;;5.80;;
24483;SDS011;12643;51.620;7.548;2023-04-30T00:34:05;9.68;;;5.88;;
24483;SDS011;12643;51.620;7.548;2023-04-30T00:36:33;8.73;;;6.32;;
24483;SDS011;12643;51.620;7.548;2023-04-30T00:39:01;7.68;;;5.80;;
24483;SDS011;12643;51.620;7.548;2023-04-30T00:41:30;10.00;;;6.88;;
24483;SDS011;12643;51.620;7.548;2023-04-30T00:46:28;7.03;;;5.68;;
24483;SDS011;12643;51.620;7.548;2023-04-30T00:48:56;7.68;;;5.80;;
24483;SDS011;12643;51.620;7.548;2023-04-30T00:51:26;7.70;;;6.47;;
24483;SDS011;12643;51.620;7.548;2023-04-30T00:53:55;10.50;;;6.05;;
24483;SDS011;12643;51.620;7.548;2023-04-30T00:56:26;8.88;;;6.10;;
24483;SDS011;12643;51.620;7.548;2023-04-30T00:58:56;9.77;;;6.68;;
24483;SDS011;12643;51.620;7.548;2023-04-30T01:01:25;10.35;;;7.47;;
24483;SDS011;12643;51.620;7.548;2023-04-30T01:03:54;13.18;;;9.35;;
24483;SDS011;12643;51.620;7.548;2023-04-30T01:06:22;11.75;;;8.05;;
24483;SDS011;12643;51.620;7.548;2023-04-30T01:08:51;15.80;;;9.77;;
24483;SDS011;12643;51.620;7.548;2023-04-30T01:11:21;17.20;;;9.90;;
24483;SDS011;12643;51.620;7.548;2023-04-30T01:14:01;16.20;;;10.18;;
24483;SDS011;12643;51.620;7.548;2023-04-30T01:16:34;17.45;;;10.10;;
24483;SDS011;12643;51.620;7.548;2023-04-30T01:19:08;15.50;;;9.60;;
24483;SDS011;12643;51.620;7.548;2023-04-30T01:21:44;11.20;;;8.07;;
24483;SDS011;12643;51.620;7.548;2023-04-30T01:24:17;15.45;;;9.65;;
24483;SDS011;12643;51.620;7.548;2023-04-30T01:26:59;14.10;;;8.40;;
24483;SDS011;12643;51.620;7.548;2023-04-30T01:29:40;9.52;;;6.75;;
24483;SDS011;12643;51.620;7.548;2023-04-30T01:32:09;10.75;;;7.53;;
24483;SDS011;12643;51.620;7.548;2023-04-30T01:34:37;9.75;;;6.90;;
24483;SDS011;12643;51.620;7.548;2023-04-30T01:37:08;10.95;;;7.82;;
24483;SDS011;12643;51.620;7.548;2023-04-30T01:39:47;10.52;;;7.43;;
24483;SDS011;12643;51.620;7.548;2023-04-30T01:42:27;11.27;;;7.05;;
24483;SDS011;12643;51.620;7.548;2023-04-30T01:45:06;11.75;;;7.78;;
24483;SDS011;12643;51.620;7.548;2023-04-30T01:47:45;12.75;;;7.72;;
24483;SDS011;12643;51.620;7.548;2023-04-30T01:50:20;13.18;;;8.85;;
24483;SDS011;12643;51.620;7.548;2023-04-30T01:52:56;16.60;;;8.90;;
24483;SDS011;12643;51.620;7.548;2023-04-30T01:55:26;13.73;;;8.52;;
24483;SDS011;12643;51.620;7.548;2023-04-30T01:58:00;13.68;;;7.80;;
24483;SDS011;12643;51.620;7.548;2023-04-30T02:00:32;15.40;;;8.70;;
24483;SDS011;12643;51.620;7.548;2023-04-30T02:03:00;11.05;;;7.60;;
24483;SDS011;12643;51.620;7.548;2023-04-30T02:05:28;11.30;;;7.55;;
24483;SDS011;12643;51.620;7.548;2023-04-30T02:07:56;10.57;;;6.80;;
24483;SDS011;12643;51.620;7.548;2023-04-30T02:10:25;9.80;;;6.25;;
24483;SDS011;12643;51.620;7.548;2023-04-30T02:12:54;7.47;;;6.03;;
24483;SDS011;12643;51.620;7.548;2023-04-30T02:15:22;8.80;;;6.22;;
24483;SDS011;12643;51.620;7.548;2023-04-30T02:17:51;12.02;;;6.60;;
24483;SDS011;12643;51.620;7.548;2023-04-30T02:20:19;7.28;;;6.28;;
24483;SDS011;12643;51.620;7.548;2023-04-30T02:22:47;10.40;;;6.88;;
24483;SDS011;12643;51.620;7.548;2023-04-30T02:25:14;8.18;;;6.82;;
24483;SDS011;12643;51.620;7.548;2023-04-30T02:27:42;8.90;;;6.88;;
24483;SDS011;12643;51.620;7.548;2023-04-30T02:30:10;9.10;;;6.65;;
24483;SDS011;12643;51.620;7.548;2023-04-30T02:32:38;9.68;;;7.32;;
24483;SDS011;12643;51.620;7.548;2023-04-30T02:35:08;9.10;;;6.78;;
24483;SDS011;12643;51.620;7.548;2023-04-30T02:37:36;10.07;;;6.70;;
24483;SDS011;12643;51.620;7.548;2023-04-30T02:40:04;10.02;;;6.80;;
24483;SDS011;12643;51.620;7.548;2023-04-30T02:42:33;9.75;;;7.50;;
24483;SDS011;12643;51.620;7.548;2023-04-30T02:45:01;10.05;;;6.82;;
24483;SDS011;12643;51.620;7.548;2023-04-30T02:47:29;8.05;;;6.57;;
24483;SDS011;12643;51.620;7.548;2023-04-30T02:49:57;7.55;;;5.85;;
24483;SDS011;12643;51.620;7.548;2023-04-30T02:52:27;8.60;;;6.15;;
24483;SDS011;12643;51.620;7.548;2023-04-30T02:54:55;7.55;;;5.85;;
24483;SDS011;12643;51.620;7.548;2023-04-30T02:57:23;8.70;;;6.07;;
24483;SDS011;12643;51.620;7.548;2023-04-30T02:59:51;7.28;;;6.00;;
24483;SDS011;12643;51.620;7.548;2023-04-30T03:02:19;9.02;;;5.80;;
24483;SDS011;12643;51.620;7.548;2023-04-30T03:04:48;8.52;;;6.00;;
24483;SDS011;12643;51.620;7.548;2023-04-30T03:07:16;9.15;;;6.10;;
24483;SDS011;12643;51.620;7.548;2023-04-30T03:09:45;8.57;;;6.50;;
24483;SDS011;12643;51.620;7.548;2023-04-30T03:12:13;9.02;;;6.43;;
24483;SDS011;12643;51.620;7.548;2023-04-30T03:14:41;6.63;;;5.75;;
24483;SDS011;12643;51.620;7.548;2023-04-30T03:17:09;8.15;;;6.53;;
24483;SDS011;12643;51.620;7.548;2023-04-30T03:19:37;8.70;;;6.18;;
24483;SDS011;12643;51.620;7.548;2023-04-30T03:22:05;10.55;;;5.88;;
24483;SDS011;12643;51.620;7.548;2023-04-30T03:24:33;10.20;;;5.93;;
24483;SDS011;12643;51.620;7.548;2023-04-30T03:27:02;8.85;;;6.07;;
24483;SDS011;12643;51.620;7.548;2023-04-30T03:29:31;9.32;;;5.95;;
24483;SDS011;12643;51.620;7.548;2023-04-30T03:31:58;7.43;;;5.22;;
24483;SDS011;12643;51.620;7.548;2023-04-30T03:34:26;6.63;;;5.65;;
24483;SDS011;12643;51.620;7.548;2023-04-30T03:36:56;6.03;;;5.15;;
24483;SDS011;12643;51.620;7.548;2023-04-30T03:39:23;7.15;;;5.38;;
24483;SDS011;12643;51.620;7.548;2023-04-30T03:41:51;7.32;;;5.75;;
24483;SDS011;12643;51.620;7.548;2023-04-30T03:44:21;7.47;;;5.40;;
24483;SDS011;12643;51.620;7.548;2023-04-30T03:46:49;9.50;;;6.57;;
24483;SDS011;12643;51.620;7.548;2023-04-30T03:49:17;8.40;;;6.18;;
24483;SDS011;12643;51.620;7.548;2023-04-30T03:51:46;8.88;;;6.55;;
24483;SDS011;12643;51.620;7.548;2023-04-30T03:54:14;8.25;;;5.93;;
24483;SDS011;12643;51.620;7.548;2023-04-30T03:56:42;7.50;;;5.93;;
24483;SDS011;12643;51.620;7.548;2023-04-30T03:59:10;7.90;;;6.00;;
24483;SDS011;12643;51.620;7.548;2023-04-30T04:01:39;9.68;;;7.00;;
24483;SDS011;12643;51.620;7.548;2023-04-30T04:04:07;9.93;;;6.78;;
24483;SDS011;12643;51.620;7.548;2023-04-30T04:06:37;11.95;;;7.10;;
24483;SDS011;12643;51.620;7.548;2023-04-30T04:09:05;13.98;;;9.23;;
24483;SDS011;12643;51.620;7.548;2023-04-30T04:11:33;10.88;;;8.45;;
24483;SDS011;12643;51.620;7.548;2023-04-30T04:14:01;15.52;;;9.27;;
24483;SDS011;12643;51.620;7.548;2023-04-30T04:16:30;14.45;;;9.45;;
24483;SDS011;12643;51.620;7.548;2023-04-30T04:18:59;17.48;;;9.73;;
24483;SDS011;12643;51.620;7.548;2023-04-30T04:21:29;14.15;;;10.20;;
24483;SDS011;12643;51.620;7.548;2023-04-30T04:23:57;17.40;;;11.07;;
24483;SDS011;12643;51.620;7.548;2023-04-30T04:26:29;13.30;;;10.45;;
24483;SDS011;12643;51.620;7.548;2023-04-30T04:28:57;15.88;;;10.63;;
24483;SDS011;12643;51.620;7.548;2023-04-30T04:31:26;15.45;;;9.98;;
24483;SDS011;12643;51.620;7.548;2023-04-30T04:33:54;17.27;;;11.65;;
24483;SDS011;12643;51.620;7.548;2023-04-30T04:36:25;17.83;;;10.60;;
24483;SDS011;12643;51.620;7.548;2023-04-30T04:38:53;15.57;;;10.70;;
24483;SDS011;12643;51.620;7.548;2023-04-30T04:41:26;15.35;;;10.50;;
24483;SDS011;12643;51.620;7.548;2023-04-30T04:43:54;14.25;;;10.32;;
24483;SDS011;12643;51.620;7.548;2023-04-30T04:46:23;16.17;;;10.82;;
24483;SDS011;12643;51.620;7.548;2023-04-30T04:48:51;16.20;;;11.48;;
24483;SDS011;12643;51.620;7.548;2023-04-30T04:51:19;16.17;;;11.30;;
24483;SDS011;12643;51.620;7.548;2023-04-30T04:53:48;18.85;;;11.40;;
24483;SDS011;12643;51.620;7.548;2023-04-30T04:56:16;16.48;;;12.05;;
24483;SDS011;12643;51.620;7.548;2023-04-30T04:58:45;13.93;;;11.32;;
24483;SDS011;12643;51.620;7.548;2023-04-30T05:01:13;20.67;;;11.45;;
24483;SDS011;12643;51.620;7.548;2023-04-30T05:03:42;15.73;;;11.43;;
24483;SDS011;12643;51.620;7.548;2023-04-30T05:06:10;15.10;;;12.20;;
24483;SDS011;12643;51.620;7.548;2023-04-30T05:08:37;18.70;;;12.10;;
24483;SDS011;12643;51.620;7.548;2023-04-30T05:11:07;18.15;;;12.68;;
24483;SDS011;12643;51.620;7.548;2023-04-30T05:13:35;18.83;;;12.65;;
24483;SDS011;12643;51.620;7.548;2023-04-30T05:16:04;19.02;;;13.50;;
24483;SDS011;12643;51.620;7.548;2023-04-30T05:18:32;17.95;;;12.60;;
24483;SDS011;12643;51.620;7.548;2023-04-30T05:20:59;18.77;;;13.23;;
24483;SDS011;12643;51.620;7.548;2023-04-30T05:23:28;20.10;;;13.80;;
24483;SDS011;12643;51.620;7.548;2023-04-30T05:25:56;20.95;;;13.13;;
24483;SDS011;12643;51.620;7.548;2023-04-30T05:28:26;20.05;;;13.90;;
24483;SDS011;12643;51.620;7.548;2023-04-30T05:30:55;16.63;;;12.38;;
24483;SDS011;12643;51.620;7.548;2023-04-30T05:33:23;17.35;;;12.35;;
24483;SDS011;12643;51.620;7.548;2023-04-30T05:35:50;18.15;;;12.63;;
24483;SDS011;12643;51.620;7.548;2023-04-30T05:38:18;19.23;;;12.43;;
24483;SDS011;12643;51.620;7.548;2023-04-30T05:40:46;21.98;;;12.38;;
24483;SDS011;12643;51.620;7.548;2023-04-30T05:43:14;20.23;;;12.90;;
24483;SDS011;12643;51.620;7.548;2023-04-30T05:45:43;17.50;;;13.43;;
24483;SDS011;12643;51.620;7.548;2023-04-30T05:48:11;16.10;;;11.65;;
24483;SDS011;12643;51.620;7.548;2023-04-30T05:50:39;14.68;;;10.82;;
24483;SDS011;12643;51.620;7.548;2023-04-30T05:53:08;16.08;;;11.65;;
24483;SDS011;12643;51.620;7.548;2023-04-30T05:55:36;17.30;;;11.85;;
24483;SDS011;12643;51.620;7.548;2023-04-30T05:58:03;16.08;;;12.02;;
24483;SDS011;12643;51.620;7.548;2023-04-30T06:00:31;15.73;;;11.13;;
24483;SDS011;12643;51.620;7.548;2023-04-30T06:03:01;17.83;;;10.63;;
24483;SDS011;12643;51.620;7.548;2023-04-30T06:05:29;19.35;;;12.00;;
24483;SDS011;12643;51.620;7.548;2023-04-30T06:07:57;15.48;;;11.18;;
24483;SDS011;12643;51.620;7.548;2023-04-30T06:10:25;16.00;;;10.98;;
24483;SDS011;12643;51.620;7.548;2023-04-30T06:12:53;19.30;;;11.07;;
24483;SDS011;12643;51.620;7.548;2023-04-30T06:15:21;14.77;;;10.40;;
24483;SDS011;12643;51.620;7.548;2023-04-30T06:17:49;15.52;;;9.68;;
24483;SDS011;12643;51.620;7.548;2023-04-30T06:20:19;22.15;;;10.45;;
24483;SDS011;12643;51.620;7.548;2023-04-30T06:22:46;16.05;;;10.00;;
24483;SDS011;12643;51.620;7.548;2023-04-30T06:25:14;20.63;;;10.35;;
24483;SDS011;12643;51.620;7.548;2023-04-30T06:27:43;19.85;;;9.77;;
24483;SDS011;12643;51.620;7.548;2023-04-30T06:30:12;14.60;;;9.15;;
24483;SDS011;12643;51.620;7.548;2023-04-30T06:32:40;12.82;;;8.45;;
24483;SDS011;12643;51.620;7.548;2023-04-30T06:35:09;17.17;;;9.80;;
24483;SDS011;12643;51.620;7.548;2023-04-30T06:37:38;16.55;;;10.70;;
24483;SDS011;12643;51.620;7.548;2023-04-30T06:40:06;18.50;;;10.23;;
24483;SDS011;12643;51.620;7.548;2023-04-30T06:42:35;14.77;;;9.60;;
24483;SDS011;12643;51.620;7.548;2023-04-30T06:45:04;11.60;;;8.45;;
24483;SDS011;12643;51.620;7.548;2023-04-30T06:47:34;17.77;;;9.27;;
24483;SDS011;12643;51.620;7.548;2023-04-30T06:50:03;17.75;;;10.75;;
24483;SDS011;12643;51.620;7.548;2023-04-30T06:52:32;15.80;;;9.63;;
24483;SDS011;12643;51.620;7.548;2023-04-30T06:55:03;14.93;;;9.35;;
24483;SDS011;12643;51.620;7.548;2023-04-30T06:57:31;16.27;;;9.88;;
24483;SDS011;12643;51.620;7.548;2023-04-30T07:00:01;14.35;;;9.40;;
24483;SDS011;12643;51.620;7.548;2023-04-30T07:02:30;22.65;;;11.40;;
24483;SDS011;12643;51.620;7.548;2023-04-30T07:04:58;17.95;;;11.00;;
24483;SDS011;12643;51.620;7.548;2023-04-30T07:07:26;21.05;;;12.10;;
24483;SDS011;12643;51.620;7.548;2023-04-30T07:09:56;17.15;;;12.75;;
24483;SDS011;12643;51.620;7.548;2023-04-30T07:12:25;26.08;;;12.60;;
24483;SDS011;12643;51.620;7.548;2023-04-30T07:14:53;19.85;;;12.30;;
24483;SDS011;12643;51.620;7.548;2023-04-30T07:17:21;25.08;;;12.40;;
24483;SDS011;12643;51.620;7.548;2023-04-30T07:19:52;17.67;;;12.52;;
24483;SDS011;12643;51.620;7.548;2023-04-30T07:22:20;17.63;;;13.07;;
24483;SDS011;12643;51.620;7.548;2023-04-30T07:24:48;16.33;;;11.90;;
24483;SDS011;12643;51.620;7.548;2023-04-30T07:27:16;19.30;;;12.02;;
24483;SDS011;12643;51.620;7.548;2023-04-30T07:29:45;20.15;;;11.95;;
24483;SDS011;12643;51.620;7.548;2023-04-30T07:32:14;18.63;;;12.38;;
24483;SDS011;12643;51.620;7.548;2023-04-30T07:34:42;20.40;;;12.75;;
24483;SDS011;12643;51.620;7.548;2023-04-30T07:37:10;21.70;;;12.60;;
24483;SDS011;12643;51.620;7.548;2023-04-30T07:39:38;16.83;;;12.68;;
24483;SDS011;12643;51.620;7.548;2023-04-30T07:42:06;18.02;;;12.43;;
24483;SDS011;12643;51.620;7.548;2023-04-30T07:44:34;18.50;;;12.73;;
24483;SDS011;12643;51.620;7.548;2023-04-30T07:47:03;16.27;;;12.35;;
24483;SDS011;12643;51.620;7.548;2023-04-30T07:49:31;20.63;;;11.90;;
24483;SDS011;12643;51.620;7.548;2023-04-30T07:52:00;18.02;;;13.02;;
24483;SDS011;12643;51.620;7.548;2023-04-30T07:54:28;18.92;;;13.25;;
24483;SDS011;12643;51.620;7.548;2023-04-30T07:56:56;18.00;;;12.00;;
24483;SDS011;12643;51.620;7.548;2023-04-30T07:59:23;17.83;;;12.57;;
24483;SDS011;12643;51.620;7.548;2023-04-30T08:01:51;19.65;;;11.27;;
24483;SDS011;12643;51.620;7.548;2023-04-30T08:04:20;14.10;;;11.40;;
24483;SDS011;12643;51.620;7.548;2023-04-30T08:06:48;15.57;;;10.77;;
24483;SDS011;12643;51.620;7.548;2023-04-30T08:09:17;13.65;;;11.07;;
24483;SDS011;12643;51.620;7.548;2023-04-30T08:11:46;16.23;;;9.73;;
24483;SDS011;12643;51.620;7.548;2023-04-30T08:14:14;14.13;;;9.15;;
24483;SDS011;12643;51.620;7.548;2023-04-30T08:16:43;12.85;;;9.68;;
24483;SDS011;12643;51.620;7.548;2023-04-30T08:19:11;14.27;;;10.07;;
24483;SDS011;12643;51.620;7.548;2023-04-30T08:21:40;15.35;;;9.43;;
24483;SDS011;12643;51.620;7.548;2023-04-30T08:24:08;10.73;;;8.43;;
24483;SDS011;12643;51.620;7.548;2023-04-30T08:26:36;13.40;;;9.25;;
24483;SDS011;12643;51.620;7.548;2023-04-30T08:29:04;10.60;;;8.75;;
24483;SDS011;12643;51.620;7.548;2023-04-30T08:31:32;9.13;;;7.03;;
24483;SDS011;12643;51.620;7.548;2023-04-30T08:34:02;9.93;;;7.15;;
24483;SDS011;12643;51.620;7.548;2023-04-30T08:36:30;12.23;;;7.75;;
24483;SDS011;12643;51.620;7.548;2023-04-30T08:38:59;11.02;;;8.05;;
24483;SDS011;12643;51.620;7.548;2023-04-30T08:41:29;11.82;;;9.07;;
24483;SDS011;12643;51.620;7.548;2023-04-30T08:44:01;11.65;;;8.27;;
24483;SDS011;12643;51.620;7.548;2023-04-30T08:46:31;16.00;;;7.93;;
24483;SDS011;12643;51.620;7.548;2023-04-30T08:49:07;13.15;;;7.65;;
24483;SDS011;12643;51.620;7.548;2023-04-30T08:51:36;10.38;;;7.40;;
24483;SDS011;12643;51.620;7.548;2023-04-30T08:54:06;13.65;;;7.15;;
24483;SDS011;12643;51.620;7.548;2023-04-30T08:56:43;8.52;;;6.22;;
24483;SDS011;12643;51.620;7.548;2023-04-30T08:59:13;8.88;;;7.03;;
24483;SDS011;12643;51.620;7.548;2023-04-30T09:01:43;9.68;;;6.68;;
24483;SDS011;12643;51.620;7.548;2023-04-30T09:04:12;11.30;;;6.82;;
24483;SDS011;12643;51.620;7.548;2023-04-30T09:06:40;9.30;;;6.68;;
24483;SDS011;12643;51.620;7.548;2023-04-30T09:09:12;7.97;;;5.60;;
24483;SDS011;12643;51.620;7.548;2023-04-30T09:11:41;8.07;;;5.20;;
24483;SDS011;12643;51.620;7.548;2023-04-30T09:14:09;9.25;;;5.40;;
24483;SDS011;12643;51.620;7.548;2023-04-30T09:16:44;13.20;;;5.70;;
24483;SDS011;12643;51.620;7.548;2023-04-30T09:19:22;9.57;;;5.80;;
24483;SDS011;12643;51.620;7.548;2023-04-30T09:21:51;8.05;;;5.10;;
24483;SDS011;12643;51.620;7.548;2023-04-30T09:24:23;8.02;;;5.28;;
24483;SDS011;12643;51.620;7.548;2023-04-30T09:26:52;9.53;;;5.93;;
24483;SDS011;12643;51.620;7.548;2023-04-30T09:29:21;7.60;;;5.75;;
24483;SDS011;12643;51.620;7.548;2023-04-30T09:32:07;7.40;;;5.57;;
24483;SDS011;12643;51.620;7.548;2023-04-30T09:34:38;9.85;;;5.60;;
24483;SDS011;12643;51.620;7.548;2023-04-30T09:37:08;7.97;;;5.50;;
24483;SDS011;12643;51.620;7.548;2023-04-30T09:42:22;7.80;;;5.57;;
24483;SDS011;12643;51.620;7.548;2023-04-30T09:44:50;11.35;;;6.53;;
24483;SDS011;12643;51.620;7.548;2023-04-30T09:47:20;9.90;;;6.53;;
24483;SDS011;12643;51.620;7.548;2023-04-30T09:49:49;8.73;;;6.28;;
24483;SDS011;12643;51.620;7.548;2023-04-30T09:52:18;9.82;;;5.90;;
24483;SDS011;12643;51.620;7.548;2023-04-30T09:54:51;7.72;;;5.68;;
24483;SDS011;12643;51.620;7.548;2023-04-30T09:57:21;13.77;;;5.88;;
24483;SDS011;12643;51.620;7.548;2023-04-30T10:02:18;7.63;;;4.70;;
24483;SDS011;12643;51.620;7.548;2023-04-30T10:04:48;10.65;;;6.95;;
24483;SDS011;12643;51.620;7.548;2023-04-30T10:07:23;10.07;;;5.80;;
24483;SDS011;12643;51.620;7.548;2023-04-30T10:10:01;10.80;;;6.43;;
24483;SDS011;12643;51.620;7.548;2023-04-30T10:12:38;14.10;;;6.40;;
24483;SDS011;12643;51.620;7.548;2023-04-30T10:15:12;10.48;;;5.82;;
24483;SDS011;12643;51.620;7.548;2023-04-30T10:17:45;8.38;;;5.63;;
24483;SDS011;12643;51.620;7.548;2023-04-30T10:20:17;8.90;;;5.18;;
24483;SDS011;12643;51.620;7.548;2023-04-30T10:22:47;7.50;;;4.50;;
24483;SDS011;12643;51.620;7.548;2023-04-30T10:25:16;8.27;;;5.45;;
24483;SDS011;12643;51.620;7.548;2023-04-30T10:27:47;6.40;;;4.70;;
24483;SDS011;12643;51.620;7.548;2023-04-30T10:30:15;9.40;;;5.45;;
24483;SDS011;12643;51.620;7.548;2023-04-30T10:32:46;6.50;;;4.72;;
24483;SDS011;12643;51.620;7.548;2023-04-30T10:35:23;8.93;;;5.57;;
24483;SDS011;12643;51.620;7.548;2023-04-30T10:37:56;5.88;;;4.53;;
24483;SDS011;12643;51.620;7.548;2023-04-30T10:40:34;6.15;;;4.63;;
24483;SDS011;12643;51.620;7.548;2023-04-30T10:43:07;12.50;;;7.68;;
24483;SDS011;12643;51.620;7.548;2023-04-30T10:45:40;6.65;;;5.00;;
24483;SDS011;12643;51.620;7.548;2023-04-30T10:48:10;9.15;;;4.40;;
24483;SDS011;12643;51.620;7.548;2023-04-30T10:50:41;5.35;;;4.15;;
24483;SDS011;12643;51.620;7.548;2023-04-30T10:53:11;5.47;;;4.30;;
24483;SDS011;12643;51.620;7.548;2023-04-30T10:55:46;5.95;;;5.15;;
24483;SDS011;12643;51.620;7.548;2023-04-30T11:01:07;7.40;;;4.63;;
24483;SDS011;12643;51.620;7.548;2023-04-30T11:03:42;12.15;;;5.07;;
24483;SDS011;12643;51.620;7.548;2023-04-30T11:09:33;7.28;;;4.68;;
24483;SDS011;12643;51.620;7.548;2023-04-30T11:12:08;7.85;;;4.63;;
24483;SDS011;12643;51.620;7.548;2023-04-30T11:14:43;8.30;;;4.85;;
24483;SDS011;12643;51.620;7.548;2023-04-30T11:17:12;9.93;;;5.30;;
24483;SDS011;12643;51.620;7.548;2023-04-30T11:19:49;8.75;;;4.78;;
24483;SDS011;12643;51.620;7.548;2023-04-30T11:22:18;7.97;;;4.88;;
24483;SDS011;12643;51.620;7.548;2023-04-30T11:24:50;6.38;;;4.78;;
24483;SDS011;12643;51.620;7.548;2023-04-30T11:27:20;7.30;;;5.43;;
24483;SDS011;12643;51.620;7.548;2023-04-30T11:29:54;7.03;;;5.00;;
24483;SDS011;12643;51.620;7.548;2023-04-30T11:32:24;10.20;;;4.85;;
24483;SDS011;12643;51.620;7.548;2023-04-30T11:34:58;6.72;;;4.68;;
24483;SDS011;12643;51.620;7.548;2023-04-30T11:37:36;7.35;;;4.55;;
24483;SDS011;12643;51.620;7.548;2023-04-30T11:40:08;11.18;;;7.22;;
24483;SDS011;12643;51.620;7.548;2023-04-30T11:42:38;7.05;;;4.85;;
24483;SDS011;12643;51.620;7.548;2023-04-30T11:45:10;6.65;;;4.85;;
24483;SDS011;12643;51.620;7.548;2023-04-30T11:47:42;10.55;;;4.55;;
24483;SDS011;12643;51.620;7.548;2023-04-30T11:50:13;7.82;;;4.50;;
24483;SDS011;12643;51.620;7.548;2023-04-30T11:52:47;5.72;;;4.20;;
24483;SDS011;12643;51.620;7.548;2023-04-30T11:55:17;7.38;;;3.70;;
24483;SDS011;12643;51.620;7.548;2023-04-30T11:57:49;4.43;;;3.10;;
24483;SDS011;12643;51.620;7.548;2023-04-30T12:00:26;4.28;;;3.03;;
24483;SDS011;12643;51.620;7.548;2023-04-30T12:02:55;7.13;;;3.78;;
24483;SDS011;12643;51.620;7.548;2023-04-30T12:05:25;8.88;;;4.10;;
24483;SDS011;12643;51.620;7.548;2023-04-30T12:07:54;3.40;;;2.95;;
24483;SDS011;12643;51.620;7.548;2023-04-30T12:10:24;5.22;;;3.75;;
24483;SDS011;12643;51.620;7.548;2023-04-30T12:12:53;8.80;;;4.60;;
24483;SDS011;12643;51.620;7.548;2023-04-30T12:15:23;5.35;;;3.90;;
24483;SDS011;12643;51.620;7.548;2023-04-30T12:20:26;4.65;;;3.10;;
24483;SDS011;12643;51.620;7.548;2023-04-30T12:22:58;5.72;;;3.35;;
24483;SDS011;12643;51.620;7.548;2023-04-30T12:25:27;6.63;;;3.90;;
24483;SDS011;12643;51.620;7.548;2023-04-30T12:27:57;6.10;;;4.00;;
24483;SDS011;12643;51.620;7.548;2023-04-30T12:30:27;5.37;;;3.77;;
24483;SDS011;12643;51.620;7.548;2023-04-30T12:32:56;5.63;;;3.80;;
24483;SDS011;12643;51.620;7.548;2023-04-30T12:35:28;4.38;;;3.28;;
24483;SDS011;12643;51.620;7.548;2023-04-30T12:38:03;5.43;;;3.78;;
24483;SDS011;12643;51.620;7.548;2023-04-30T12:40:32;5.07;;;3.72;;
24483;SDS011;12643;51.620;7.548;2023-04-30T12:43:00;10.23;;;3.90;;
24483;SDS011;12643;51.620;7.548;2023-04-30T12:45:44;5.10;;;3.13;;
24483;SDS011;12643;51.620;7.548;2023-04-30T12:48:19;5.93;;;3.40;;
24483;SDS011;12643;51.620;7.548;2023-04-30T12:50:52;6.72;;;3.88;;
24483;SDS011;12643;51.620;7.548;2023-04-30T12:53:21;5.75;;;3.33;;
24483;SDS011;12643;51.620;7.548;2023-04-30T12:56:08;6.05;;;4.22;;
24483;SDS011;12643;51.620;7.548;2023-04-30T12:58:37;7.25;;;3.72;;
24483;SDS011;12643;51.620;7.548;2023-04-30T13:01:11;3.40;;;2.70;;
24483;SDS011;12643;51.620;7.548;2023-04-30T13:03:40;6.35;;;2.83;;
24483;SDS011;12643;51.620;7.548;2023-04-30T13:06:09;6.20;;;3.15;;
24483;SDS011;12643;51.620;7.548;2023-04-30T13:08:40;7.30;;;3.70;;
24483;SDS011;12643;51.620;7.548;2023-04-30T13:11:08;4.32;;;3.00;;
24483;SDS011;12643;51.620;7.548;2023-04-30T13:13:38;5.13;;;2.95;;
24483;SDS011;12643;51.620;7.548;2023-04-30T13:16:12;8.63;;;4.97;;
24483;SDS011;12643;51.620;7.548;2023-04-30T13:18:40;4.10;;;2.88;;
24483;SDS011;12643;51.620;7.548;2023-04-30T13:21:09;5.55;;;3.40;;
24483;SDS011;12643;51.620;7.548;2023-04-30T13:23:37;6.70;;;3.03;;
24483;SDS011;12643;51.620;7.548;2023-04-30T13:26:07;5.00;;;2.85;;
24483;SDS011;12643;51.620;7.548;2023-04-30T13:28:35;8.70;;;2.75;;
24483;SDS011;12643;51.620;7.548;2023-04-30T13:31:03;2.67;;;2.35;;
24483;SDS011;12643;51.620;7.548;2023-04-30T13:33:33;5.50;;;3.10;;
24483;SDS011;12643;51.620;7.548;2023-04-30T13:36:01;3.33;;;2.28;;
24483;SDS011;12643;51.620;7.548;2023-04-30T13:38:29;4.03;;;2.75;;
24483;SDS011;12643;51.620;7.548;2023-04-30T13:40:57;6.05;;;2.63;;
24483;SDS011;12643;51.620;7.548;2023-04-30T13:43:25;5.20;;;2.60;;
24483;SDS011;12643;51.620;7.548;2023-04-30T13:45:53;9.43;;;2.70;;
24483;SDS011;12643;51.620;7.548;2023-04-30T13:48:23;7.78;;;2.70;;
24483;SDS011;12643;51.620;7.548;2023-04-30T13:50:52;4.60;;;2.63;;
24483;SDS011;12643;51.620;7.548;2023-04-30T13:53:20;8.73;;;4.15;;
24483;SDS011;12643;51.620;7.548;2023-04-30T13:55:48;4.60;;;2.53;;
24483;SDS011;12643;51.620;7.548;2023-04-30T13:58:16;4.70;;;2.50;;
24483;SDS011;12643;51.620;7.548;2023-04-30T14:00:46;10.02;;;5.25;;
24483;SDS011;12643;51.620;7.548;2023-04-30T14:03:17;7.53;;;2.60;;
24483;SDS011;12643;51.620;7.548;2023-04-30T14:05:45;5.63;;;2.75;;
24483;SDS011;12643;51.620;7.548;2023-04-30T14:08:15;10.13;;;4.50;;
24483;SDS011;12643;51.620;7.548;2023-04-30T14:10:43;9.38;;;4.00;;
24483;SDS011;12643;51.620;7.548;2023-04-30T14:13:13;9.60;;;4.53;;
24483;SDS011;12643;51.620;7.548;2023-04-30T14:15:42;5.80;;;2.80;;
24483;SDS011;12643;51.620;7.548;2023-04-30T14:18:11;4.20;;;2.80;;
24483;SDS011;12643;51.620;7.548;2023-04-30T14:20:40;4.85;;;2.28;;
24483;SDS011;12643;51.620;7.548;2023-04-30T14:23:09;6.15;;;2.90;;
24483;SDS011;12643;51.620;7.548;2023-04-30T14:25:43;7.10;;;2.88;;
24483;SDS011;12643;51.620;7.548;2023-04-30T14:28:11;3.80;;;2.22;;
24483;SDS011;12643;51.620;7.548;2023-04-30T14:30:39;30.25;;;19.70;;
24483;SDS011;12643;51.620;7.548;2023-04-30T14:33:07;7.47;;;3.42;;
24483;SDS011;12643;51.620;7.548;2023-04-30T14:35:37;7.32;;;3.70;;
24483;SDS011;12643;51.620;7.548;2023-04-30T14:38:07;13.40;;;7.70;;
24483;SDS011;12643;51.620;7.548;2023-04-30T14:40:34;13.55;;;8.20;;
24483;SDS011;12643;51.620;7.548;2023-04-30T14:43:08;5.13;;;2.88;;
24483;SDS011;12643;51.620;7.548;2023-04-30T14:45:36;4.90;;;2.42;;
24483;SDS011;12643;51.620;7.548;2023-04-30T14:48:05;7.47;;;2.20;;
24483;SDS011;12643;51.620;7.548;2023-04-30T14:50:33;6.28;;;2.45;;
24483;SDS011;12643;51.620;7.548;2023-04-30T14:53:01;4.50;;;2.20;;
24483;SDS011;12643;51.620;7.548;2023-04-30T14:55:30;3.70;;;2.00;;
24483;SDS011;12643;51.620;7.548;2023-04-30T14:57:58;3.28;;;1.70;;
24483;SDS011;12643;51.620;7.548;2023-04-30T15:00:30;4.73;;;1.83;;
24483;SDS011;12643;51.620;7.548;2023-04-30T15:02:58;5.57;;;1.80;;
24483;SDS011;12643;51.620;7.548;2023-04-30T15:05:27;4.60;;;2.08;;
24483;SDS011;12643;51.620;7.548;2023-04-30T15:07:56;4.45;;;2.30;;
24483;SDS011;12643;51.620;7.548;2023-04-30T15:10:24;5.22;;;2.17;;